createdAt,value
2018-05-10T00:00:18.287Z,22.1
2018-05-10T00:01:08.936Z,22
2018-05-10T00:01:59.247Z,22.1
2018-05-10T00:02:48.756Z,22.1
2018-05-10T00:03:39.539Z,22.1
2018-05-10T00:04:28.987Z,22
2018-05-10T00:05:18.656Z,22
2018-05-10T00:06:09.502Z,22
2018-05-10T00:06:59.665Z,22
2018-05-10T00:07:50.247Z,22.1
2018-05-10T00:08:39.021Z,22
2018-05-10T00:09:44.468Z,22.1
2018-05-10T00:10:20.013Z,22
2018-05-10T00:11:09.404Z,22
2018-05-10T00:11:59.752Z,22.1
2018-05-10T00:12:48.984Z,22.1
2018-05-10T00:13:39.335Z,22.1
2018-05-10T00:14:29.111Z,22
2018-05-10T00:15:20.285Z,22
2018-05-10T00:16:09.554Z,22
2018-05-10T00:17:00.425Z,22.1
2018-05-10T00:17:50.206Z,22.1
2018-05-10T00:18:40.260Z,22
2018-05-10T00:19:30.073Z,22
2018-05-10T00:20:20.312Z,22
2018-05-10T00:21:10.460Z,22
2018-05-10T00:22:00.508Z,22
2018-05-10T00:22:50.299Z,22.1
2018-05-10T00:23:40.348Z,22
2018-05-10T00:24:31.187Z,22
2018-05-10T00:25:20.764Z,22
2018-05-10T00:26:10.876Z,22.1
2018-05-10T00:27:00.901Z,22
2018-05-10T00:27:51.197Z,22
2018-05-10T00:28:40.731Z,22
2018-05-10T00:29:31.112Z,22.1
2018-05-10T00:30:21.067Z,22
2018-05-10T00:31:11.407Z,22
2018-05-10T00:32:01.291Z,22
2018-05-10T00:32:51.330Z,22.1
2018-05-10T00:33:41.019Z,22
2018-05-10T00:34:31.184Z,22
2018-05-10T00:35:20.986Z,22
2018-05-10T00:36:12.284Z,22
2018-05-10T00:37:00.825Z,22
2018-05-10T00:37:51.446Z,22
2018-05-10T00:38:41.812Z,22
2018-05-10T00:39:31.979Z,22
2018-05-10T00:40:21.626Z,22
2018-05-10T00:41:11.185Z,22
2018-05-10T00:42:01.806Z,22
2018-05-10T00:43:55.849Z,22
2018-05-10T00:44:05.589Z,22
2018-05-10T00:44:57.153Z,22.1
2018-05-10T00:45:46.297Z,22
2018-05-10T00:46:36.502Z,22
2018-05-10T00:47:25.880Z,22
2018-05-10T00:48:17.070Z,22
2018-05-10T00:49:06.827Z,22
2018-05-10T00:49:56.037Z,22
2018-05-10T00:50:46.661Z,22
2018-05-10T00:51:36.474Z,22
2018-05-10T00:52:42.429Z,22
2018-05-10T00:53:16.511Z,22
2018-05-10T00:54:06.974Z,22
2018-05-10T00:54:57.261Z,22
2018-05-10T00:55:47.366Z,22
2018-05-10T00:56:37.700Z,22
2018-05-10T00:57:26.936Z,22
2018-05-10T00:58:17.531Z,22
2018-05-10T00:59:07.959Z,22
2018-05-10T00:59:57.401Z,22
2018-05-10T01:00:46.922Z,22
2018-05-10T01:01:38.062Z,22
2018-05-10T01:02:27.020Z,22
2018-05-10T01:03:17.470Z,22
2018-05-10T01:04:06.872Z,22
2018-05-10T01:04:57.395Z,22
2018-05-10T01:05:46.927Z,22
2018-05-10T01:06:37.074Z,22
2018-05-10T01:07:27.167Z,22
2018-05-10T01:08:17.192Z,22
2018-05-10T01:09:07.596Z,22
2018-05-10T01:09:58.554Z,22
2018-05-10T01:10:47.494Z,22
2018-05-10T01:11:37.039Z,22
2018-05-10T01:12:27.069Z,22
2018-05-10T01:13:18.331Z,22
2018-05-10T01:14:08.204Z,22
2018-05-10T01:14:58.342Z,22
2018-05-10T01:15:47.464Z,22
2018-05-10T01:16:38.562Z,22
2018-05-10T01:17:28.188Z,22
2018-05-10T01:18:17.956Z,22
2018-05-10T01:19:08.013Z,22
2018-05-10T01:20:12.991Z,22
2018-05-10T01:20:49.243Z,22
2018-05-10T01:21:38.371Z,22
2018-05-10T01:22:28.827Z,22.1
2018-05-10T01:23:18.651Z,22
2018-05-10T01:24:08.379Z,22
2018-05-10T01:24:59.343Z,22
2018-05-10T01:25:49.580Z,22
2018-05-10T01:26:38.903Z,22
2018-05-10T01:27:28.770Z,22
2018-05-10T01:28:19.316Z,22
2018-05-10T01:29:10.177Z,22
2018-05-10T01:29:59.402Z,22
2018-05-10T01:30:49.583Z,22
2018-05-10T01:31:39.615Z,22
2018-05-10T01:32:43.887Z,22
2018-05-10T20:10:33.228Z,21
2018-05-10T20:11:24.916Z,21
2018-05-10T20:12:14.691Z,21
2018-05-10T20:13:04.759Z,21
2018-05-10T20:13:55.646Z,21
2018-05-10T20:14:44.349Z,21
2018-05-10T20:15:35.240Z,21
2018-05-10T20:16:25.266Z,21
2018-05-10T20:17:14.516Z,20.9
2018-05-10T20:18:05.459Z,20.9
2018-05-10T20:18:54.121Z,20.9
2018-05-10T20:19:43.956Z,20.9
2018-05-10T20:20:33.706Z,20.9
2018-05-10T20:21:24.948Z,20.9
2018-05-10T20:22:14.588Z,20.9
2018-05-10T20:23:04.729Z,20.9
2018-05-10T20:23:56.227Z,20.9
2018-05-10T20:24:44.677Z,20.9
2018-05-10T20:25:34.863Z,20.9
2018-05-10T20:26:24.640Z,20.9
2018-05-10T20:27:14.305Z,20.9
2018-05-10T20:28:04.671Z,20.9
2018-05-10T20:28:54.863Z,20.9
2018-05-10T20:29:44.761Z,20.9
2018-05-10T20:30:35.092Z,20.9
2018-05-10T20:31:25.039Z,20.9
2018-05-10T20:32:16.666Z,20.9
2018-05-10T20:33:05.438Z,20.9
2018-05-10T20:33:55.363Z,20.9
2018-05-10T20:34:45.653Z,20.9
2018-05-10T20:35:35.877Z,21
2018-05-10T20:36:25.738Z,21
2018-05-10T20:37:15.831Z,21
2018-05-10T20:38:05.238Z,21
2018-05-10T20:38:55.958Z,21
2018-05-10T20:39:45.483Z,21
2018-05-10T20:40:35.549Z,21
2018-05-10T20:41:25.923Z,21
2018-05-10T20:42:16.331Z,21
2018-05-10T20:43:06.628Z,21
2018-05-10T20:43:56.365Z,21
2018-05-10T20:44:46.831Z,21
2018-05-10T20:45:36.699Z,21
2018-05-10T20:46:26.452Z,21
2018-05-10T20:47:16.812Z,21
2018-05-10T20:48:06.469Z,21
2018-05-10T20:48:57.522Z,21.1
2018-05-10T20:49:46.209Z,21.1
2018-05-10T20:50:37.369Z,21.1
2018-05-10T20:51:26.045Z,21.1
2018-05-10T20:52:17.253Z,21.1
2018-05-10T20:53:07.323Z,21.1
2018-05-10T20:57:17.276Z,21.2
2018-05-10T20:58:07.128Z,21.2
2018-05-10T20:58:57.352Z,21.2
2018-05-10T20:59:47.507Z,21.2
2018-05-10T21:00:37.861Z,21.2
2018-05-10T21:01:28.202Z,21.2
2018-05-10T21:02:17.708Z,21.2
2018-05-10T21:03:07.867Z,21.3
2018-05-10T21:03:57.152Z,21.3
2018-05-10T21:04:48.248Z,21.3
2018-05-10T21:05:37.973Z,21.3
2018-05-10T21:06:27.468Z,21.3
2018-05-10T21:07:17.751Z,21.3
2018-05-10T21:08:08.368Z,21.3
2018-05-10T21:08:57.848Z,21.3
2018-05-10T21:09:48.761Z,21.3
2018-05-10T21:10:38.858Z,21.3
2018-05-10T21:11:28.054Z,21.3
2018-05-10T21:12:18.401Z,21.3
2018-05-10T21:13:08.566Z,21.3
2018-05-10T21:13:58.510Z,21.3
2018-05-10T21:14:48.112Z,21.3
2018-05-10T21:15:39.250Z,21.3
2018-05-10T21:16:30.561Z,21.3
2018-05-10T21:17:19.356Z,21.3
2018-05-10T21:18:09.689Z,21.3
2018-05-10T21:19:00.031Z,21.3
2018-05-10T21:19:49.214Z,21.3
2018-05-10T21:20:39.619Z,21.3
2018-05-10T21:21:30.099Z,21.4
2018-05-10T21:22:19.700Z,21.3
2018-05-10T21:23:11.311Z,21.4
2018-05-10T21:23:59.562Z,21.3
2018-05-10T21:24:50.465Z,21.3
2018-05-10T21:25:39.684Z,21.4
2018-05-10T21:26:30.324Z,21.4
2018-05-10T21:27:20.377Z,21.4
2018-05-10T21:28:10.119Z,21.4
2018-05-10T21:28:59.912Z,21.4
2018-05-10T21:29:50.871Z,21.4
2018-05-10T21:30:40.332Z,21.4
2018-05-10T21:31:30.437Z,21.4
2018-05-10T21:32:21.017Z,21.4
2018-05-10T21:33:11.115Z,21.4
2018-05-10T21:34:02.190Z,21.4
2018-05-10T21:34:51.210Z,21.4
2018-05-10T21:35:40.695Z,21.4
2018-05-10T21:36:31.166Z,21.4
2018-05-10T21:37:21.397Z,21.4
2018-05-10T21:38:11.254Z,21.4
2018-05-10T21:39:01.276Z,21.4
2018-05-10T21:39:51.036Z,21.4
2018-05-10T21:40:41.161Z,21.4
2018-05-10T21:41:31.206Z,21.4
2018-05-10T21:42:21.534Z,21.4
2018-05-10T21:43:11.315Z,21.4
2018-05-10T21:44:01.063Z,21.4
2018-05-10T21:44:53.780Z,21.4
2018-05-10T21:45:41.753Z,21.4
2018-05-10T21:46:31.813Z,21.4
2018-05-10T21:47:22.185Z,21.4
2018-05-10T21:48:11.930Z,21.4
2018-05-10T21:49:01.703Z,21.4
2018-05-10T21:49:52.116Z,21.4
2018-05-10T21:50:41.583Z,21.4
2018-05-10T21:51:31.930Z,21.4
2018-05-10T21:52:22.003Z,21.4
2018-05-10T21:53:12.976Z,21.4
2018-05-10T21:54:01.290Z,21.4
2018-05-10T21:54:53.161Z,21.4
2018-05-10T21:55:42.508Z,21.4
2018-05-10T21:56:32.576Z,21.4
2018-05-10T21:57:22.125Z,21.4
2018-05-10T21:58:12.737Z,21.4
2018-05-10T21:59:02.779Z,21.4
2018-05-10T21:59:52.847Z,21.4
2018-05-10T22:00:43.195Z,21.4
2018-05-10T22:01:33.061Z,21.4
2018-05-10T22:02:23.280Z,21.4
2018-05-10T22:03:13.326Z,21.4
2018-05-10T22:04:03.165Z,21.4
2018-05-10T22:04:53.019Z,21.4
2018-05-10T22:05:43.284Z,21.4
2018-05-10T22:06:32.739Z,21.4
2018-05-10T22:07:22.869Z,21.4
2018-05-10T22:08:12.577Z,21.4
2018-05-10T22:09:03.983Z,21.4
2018-05-10T22:09:53.930Z,21.4
2018-05-10T22:10:43.662Z,21.4
2018-05-10T22:11:33.413Z,21.4
2018-05-10T22:12:23.572Z,21.4
2018-05-10T22:13:13.876Z,21.4
2018-05-10T22:14:03.348Z,21.4
2018-05-10T22:14:54.083Z,21.4
2018-05-10T22:15:43.824Z,21.4
2018-05-10T22:16:34.231Z,21.4
2018-05-10T22:17:24.504Z,21.4
2018-05-10T22:18:14.249Z,21.4
2018-05-10T22:19:04.668Z,21.4
2018-05-10T22:19:53.813Z,21.4
2018-05-10T22:20:44.252Z,21.4
2018-05-10T22:21:34.187Z,21.4
2018-05-10T22:22:24.811Z,21.4
2018-05-10T22:23:14.622Z,21.4
2018-05-10T22:24:04.666Z,21.4
2018-05-10T22:24:54.976Z,21.4
2018-05-10T22:25:44.778Z,21.4
2018-05-10T22:26:34.867Z,21.4
2018-05-10T22:27:24.056Z,21.4
2018-05-10T22:28:14.955Z,21.4
2018-05-10T22:29:04.512Z,21.4
2018-05-10T22:29:55.163Z,21.4
2018-05-10T22:30:45.451Z,21.4
2018-05-10T22:31:35.530Z,21.4
2018-05-10T22:32:25.595Z,21.4
2018-05-10T22:33:15.375Z,21.4
2018-05-10T22:34:04.878Z,21.4
2018-05-10T22:34:55.506Z,21.4
2018-05-10T22:35:45.563Z,21.4
2018-05-10T22:36:35.302Z,21.4
2018-05-10T22:37:25.100Z,21.5
2018-05-10T22:38:16.021Z,21.4
2018-05-10T22:39:05.550Z,21.4
2018-05-10T22:39:56.196Z,21.4
2018-05-10T22:40:45.669Z,21.4
2018-05-10T22:41:36.006Z,21.4
2018-05-10T22:42:26.071Z,21.4
2018-05-10T22:43:15.865Z,21.4
2018-05-10T22:44:05.607Z,21.4
2018-05-10T22:44:56.527Z,21.4
2018-05-10T22:45:45.729Z,21.4
2018-05-10T22:46:36.649Z,21.4
2018-05-10T22:47:25.337Z,21.4
2018-05-10T22:48:16.224Z,21.4
2018-05-10T22:49:06.889Z,21.4
2018-05-10T22:49:56.635Z,21.4
2018-05-10T22:50:46.749Z,21.4
2018-05-10T22:51:36.752Z,21.4
2018-05-10T22:52:26.843Z,21.4
2018-05-10T22:53:17.168Z,21.4
2018-05-10T22:54:07.034Z,21.4
2018-05-10T22:54:57.381Z,21.4
2018-05-10T22:55:47.418Z,21.4
2018-05-10T22:56:36.581Z,21.4
2018-05-10T22:57:27.220Z,21.4
2018-05-10T22:58:17.575Z,21.4
2018-05-10T22:59:07.321Z,21.4
2018-05-10T22:59:58.271Z,21.4
2018-05-10T23:00:47.276Z,21.4
2018-05-10T23:01:37.098Z,21.4
2018-05-10T23:02:27.963Z,21.4
2018-05-10T23:03:17.410Z,21.4
2018-05-10T23:04:08.005Z,21.4
2018-05-10T23:04:58.073Z,21.4
2018-05-10T23:05:48.125Z,21.4
2018-05-10T23:06:37.648Z,21.4
2018-05-10T23:07:27.956Z,21.4
2018-05-10T23:08:18.061Z,21.4
2018-05-10T23:09:07.235Z,21.4
2018-05-10T23:09:57.875Z,21.4
2018-05-10T23:10:47.965Z,21.4
2018-05-10T23:11:37.721Z,21.4
2018-05-10T23:12:28.352Z,21.4
2018-05-10T23:13:18.158Z,21.4
2018-05-10T23:14:08.757Z,21.4
2018-05-10T23:14:58.255Z,21.4
2018-05-10T23:15:48.580Z,21.4
2018-05-10T23:16:38.926Z,21.4
2018-05-10T23:17:28.444Z,21.4
2018-05-10T23:18:19.041Z,21.4
2018-05-10T23:19:08.889Z,21.4
2018-05-10T23:19:58.608Z,21.4
2018-05-10T23:20:48.698Z,21.4
2018-05-10T23:21:39.052Z,21.4
2018-05-10T23:22:28.521Z,21.5
2018-05-10T23:23:19.149Z,21.4
2018-05-10T23:24:09.260Z,21.4
2018-05-10T23:24:58.743Z,21.5
2018-05-10T23:25:49.718Z,21.4
2018-05-10T23:26:39.418Z,21.4
2018-05-10T23:27:29.763Z,21.4
2018-05-10T23:28:19.832Z,21.4
2018-05-10T23:29:09.068Z,21.4
2018-05-10T23:29:59.399Z,21.4
2018-05-10T23:30:49.724Z,21.4
2018-05-10T23:31:39.834Z,21.4
2018-05-10T23:32:29.858Z,21.4
2018-05-10T23:33:19.929Z,21.4
2018-05-10T23:34:10.271Z,21.4
2018-05-10T23:34:59.746Z,21.5
2018-05-10T23:35:49.551Z,21.4
2018-05-10T23:36:40.148Z,21.4
2018-05-10T23:37:30.041Z,21.4
2018-05-10T23:38:19.740Z,21.4
2018-05-10T23:39:10.370Z,21.5
2018-05-10T23:40:00.675Z,21.5
2018-05-10T23:40:50.753Z,21.4
2018-05-10T23:41:40.309Z,21.5
2018-05-10T23:42:31.003Z,21.4
2018-05-10T23:43:20.436Z,21.5
2018-05-10T23:44:11.052Z,21.4
2018-05-10T23:45:00.815Z,21.4
2018-05-10T23:45:50.311Z,21.5
2018-05-10T23:46:40.933Z,21.4
2018-05-10T23:47:30.778Z,21.4
2018-05-10T23:48:21.084Z,21.5
2018-05-10T23:49:10.871Z,21.4
2018-05-10T23:50:01.176Z,21.4
2018-05-10T23:50:51.254Z,21.4
2018-05-10T23:51:41.031Z,21.4
2018-05-10T23:52:30.561Z,21.5
2018-05-10T23:53:21.693Z,21.4
2018-05-10T23:54:11.262Z,21.4
2018-05-10T23:55:01.095Z,21.5
2018-05-10T23:55:51.917Z,21.4
2018-05-10T23:56:41.957Z,21.4
2018-05-10T23:57:32.028Z,21.4
2018-05-10T23:58:21.280Z,21.4
2018-05-10T23:59:11.619Z,21.4
